Time;durP1;ratioP1;P1;durP2;ratioP2;P2;SDS_P1;SDS_P2;PMS_P1;PMS_P2;Temp;Humidity;BMP_temperature;BMP_pressure;BME280_temperature;BME280_humidity;BME280_pressure;Samples;Min_cycle;Max_cycle;Signal;HPM_P1;HPM_P2
2021/08/22 00:01:02;;;;;;;11.23;6.87;;;19.70;99.90;;;;;;5023764;28;20458;-74
2021/08/22 00:03:48;;;;;;;12.90;7.23;;;19.70;99.90;;;;;;5027818;28;20546;-74
2021/08/22 00:06:33;;;;;;;8.50;6.20;;;19.70;99.90;;;;;;5025344;28;20526;-74
2021/08/22 00:09:19;;;;;;;11.50;6.63;;;19.70;99.90;;;;;;5024570;28;20474;-75
2021/08/22 00:12:05;;;;;;;10.47;6.60;;;19.70;99.90;;;;;;5031231;28;20426;-74
2021/08/22 00:14:53;;;;;;;9.53;6.70;;;19.80;99.90;;;;;;5021569;28;20936;-74
2021/08/22 00:17:38;;;;;;;13.50;7.20;;;19.70;99.90;;;;;;5022848;28;20592;-74
2021/08/22 00:20:24;;;;;;;10.53;7.40;;;19.70;99.90;;;;;;5027312;28;20506;-75
2021/08/22 00:23:09;;;;;;;13.30;7.07;;;19.60;99.90;;;;;;5028929;28;20472;-74
2021/08/22 00:25:55;;;;;;;10.17;5.80;;;19.60;99.90;;;;;;5029587;28;20209;-73
2021/08/22 00:28:40;;;;;;;10.63;5.87;;;19.60;99.90;;;;;;5028364;28;20460;-74
2021/08/22 00:31:28;;;;;;;9.13;6.80;;;19.60;99.90;;;;;;5026425;28;20435;-73
2021/08/22 00:34:13;;;;;;;9.80;5.87;;;19.60;99.90;;;;;;5027919;28;20454;-73
2021/08/22 00:36:59;;;;;;;8.10;5.77;;;19.40;99.90;;;;;;5021257;28;20513;-74
2021/08/22 00:39:45;;;;;;;14.43;6.00;;;19.30;99.90;;;;;;5030389;28;20512;-73
2021/08/22 00:42:32;;;;;;;11.30;5.27;;;19.30;99.90;;;;;;5029452;28;20484;-74
2021/08/22 00:45:18;;;;;;;8.97;6.37;;;19.30;99.90;;;;;;5029796;28;20811;-74
2021/08/22 00:48:06;;;;;;;10.70;5.20;;;19.30;99.90;;;;;;5028761;28;21037;-74
2021/08/22 00:50:52;;;;;;;11.60;5.40;;;19.30;99.90;;;;;;5032013;28;20462;-73
2021/08/22 00:53:38;;;;;;;8.82;6.25;;;19.30;99.90;;;;;;5026865;28;20519;-74
2021/08/22 00:56:24;;;;;;;7.43;6.17;;;19.30;99.90;;;;;;5029575;28;20689;-73
2021/08/22 00:59:11;;;;;;;13.40;6.70;;;19.30;99.90;;;;;;5029012;28;20507;-74
2021/08/22 01:01:59;;;;;;;7.47;4.60;;;19.40;99.90;;;;;;5022735;28;20975;-74
2021/08/22 01:04:51;;;;;;;8.37;5.30;;;19.40;99.90;;;;;;5032213;28;20465;-74
2021/08/22 01:07:43;;;;;;;7.23;5.40;;;19.40;99.90;;;;;;5028766;28;20473;-74
2021/08/22 01:10:32;;;;;;;6.70;4.87;;;19.30;99.90;;;;;;5034303;28;20449;-75
2021/08/22 01:13:22;;;;;;;8.90;4.90;;;19.30;99.90;;;;;;5034128;28;20476;-73
2021/08/22 01:16:10;;;;;;;6.27;4.63;;;19.20;99.90;;;;;;5028878;28;20446;-73
2021/08/22 01:18:59;;;;;;;8.97;4.70;;;19.20;99.90;;;;;;5028910;28;20463;-74
2021/08/22 01:21:48;;;;;;;8.20;4.90;;;19.20;99.90;;;;;;5023765;28;20450;-73
2021/08/22 01:24:36;;;;;;;5.50;4.40;;;19.10;99.90;;;;;;5031767;28;20708;-73
2021/08/22 01:27:22;;;;;;;7.90;4.80;;;19.10;99.90;;;;;;5028561;28;20594;-74
2021/08/22 01:30:10;;;;;;;5.70;4.67;;;19.10;99.90;;;;;;5025885;28;20450;-73
2021/08/22 01:32:58;;;;;;;19.13;4.53;;;19.00;99.90;;;;;;5029498;28;20534;-73
2021/08/22 01:35:45;;;;;;;5.70;4.17;;;19.10;99.90;;;;;;5032401;28;20579;-74
2021/08/22 01:38:30;;;;;;;5.87;4.37;;;19.10;99.90;;;;;;5024761;28;20980;-74
2021/08/22 01:41:17;;;;;;;5.30;3.83;;;19.10;99.90;;;;;;5030539;28;20511;-74
2021/08/22 01:44:05;;;;;;;4.90;3.83;;;19.10;99.90;;;;;;5029279;28;20583;-74
2021/08/22 01:46:51;;;;;;;7.03;4.23;;;19.10;99.90;;;;;;5029661;28;20544;-74
2021/08/22 01:49:40;;;;;;;5.00;3.87;;;19.10;99.90;;;;;;5024979;28;20967;-74
2021/08/22 01:52:26;;;;;;;6.85;3.85;;;19.10;99.90;;;;;;5020015;28;20969;-73
2021/08/22 01:55:12;;;;;;;7.37;3.97;;;19.20;99.90;;;;;;5025779;28;20974;-73
2021/08/22 01:57:58;;;;;;;7.80;3.73;;;19.10;99.90;;;;;;5031523;28;20516;-74
2021/08/22 02:00:44;;;;;;;7.53;3.30;;;19.10;99.90;;;;;;5056892;22;20504;-77
2021/08/22 02:03:36;;;;;;;9.40;4.30;;;19.10;99.90;;;;;;5053886;28;20653;-78
2021/08/22 02:06:28;;;;;;;7.33;4.00;;;19.00;99.90;;;;;;5053094;28;20575;-77
2021/08/22 02:09:17;;;;;;;4.70;3.77;;;19.00;99.90;;;;;;5044513;28;20453;-74
2021/08/22 02:12:10;;;;;;;5.40;3.97;;;19.00;99.90;;;;;;5035264;28;20451;-77
2021/08/22 02:15:00;;;;;;;5.10;3.90;;;18.90;99.90;;;;;;5033400;28;20821;-75
2021/08/22 02:17:58;;;;;;;8.13;4.87;;;18.80;99.90;;;;;;5036172;28;20972;-77
2021/08/22 02:20:45;;;;;;;6.80;4.67;;;18.90;99.90;;;;;;5035432;28;20506;-77
2021/08/22 02:23:33;;;;;;;5.78;4.30;;;18.90;99.90;;;;;;5033774;28;20452;-73
2021/08/22 02:26:19;;;;;;;5.00;3.80;;;18.90;99.90;;;;;;5037000;28;20293;-77
2021/08/22 02:29:05;;;;;;;7.20;4.60;;;19.00;99.90;;;;;;5028791;28;20438;-76
2021/08/22 02:31:51;;;;;;;6.33;4.70;;;19.10;99.90;;;;;;5035715;28;20556;-76
2021/08/22 02:34:36;;;;;;;5.50;4.70;;;19.10;99.90;;;;;;5036686;28;20581;-77
2021/08/22 02:37:22;;;;;;;6.23;4.20;;;19.00;99.90;;;;;;5032302;28;20442;-77
2021/08/22 02:40:10;;;;;;;13.70;5.20;;;19.00;99.90;;;;;;5034334;28;20545;-78
2021/08/22 02:42:56;;;;;;;8.47;5.50;;;19.00;99.90;;;;;;5037959;28;20437;-78
2021/08/22 02:45:41;;;;;;;10.90;4.50;;;19.00;99.90;;;;;;5030231;28;20501;-77
2021/08/22 02:48:27;;;;;;;6.10;4.60;;;19.10;99.90;;;;;;5033247;28;20435;-76
2021/08/22 02:51:13;;;;;;;11.90;4.40;;;19.10;99.90;;;;;;5027447;28;20512;-77
2021/08/22 02:53:58;;;;;;;5.93;4.40;;;19.10;99.90;;;;;;5034435;28;20538;-77
2021/08/22 02:56:45;;;;;;;6.63;4.43;;;19.10;99.90;;;;;;5036036;28;20458;-77
2021/08/22 02:59:31;;;;;;;5.77;4.63;;;19.10;99.90;;;;;;5026170;28;20420;-78
2021/08/22 03:02:16;;;;;;;7.87;4.27;;;19.20;99.90;;;;;;5032179;28;20417;-76
2021/08/22 03:05:02;;;;;;;8.60;4.97;;;19.10;99.90;;;;;;5031104;28;20533;-77
2021/08/22 03:07:48;;;;;;;8.50;5.07;;;19.10;99.90;;;;;;5034455;28;20868;-77
2021/08/22 03:10:33;;;;;;;6.30;4.40;;;19.10;99.90;;;;;;5032359;28;21287;-77
2021/08/22 03:13:20;;;;;;;6.53;4.53;;;19.10;99.90;;;;;;5031234;28;20446;-74
2021/08/22 03:16:06;;;;;;;5.10;4.60;;;19.00;99.90;;;;;;5035924;28;20421;-76
2021/08/22 03:18:51;;;;;;;9.30;4.07;;;19.10;99.90;;;;;;5034015;28;20515;-77
2021/08/22 03:21:37;;;;;;;7.93;4.70;;;19.00;99.90;;;;;;5025877;28;20446;-77
2021/08/22 03:24:23;;;;;;;7.88;4.50;;;18.90;99.90;;;;;;5032747;28;20463;-77
2021/08/22 03:27:08;;;;;;;5.03;4.20;;;19.10;99.90;;;;;;5027856;28;20316;-77
2021/08/22 03:29:55;;;;;;;5.50;4.07;;;19.10;99.90;;;;;;5036891;28;20479;-77
2021/08/22 03:32:41;;;;;;;5.40;4.17;;;19.10;99.90;;;;;;5035341;28;20437;-77
2021/08/22 03:35:27;;;;;;;7.30;4.50;;;19.10;99.90;;;;;;5026708;28;20453;-76
2021/08/22 03:38:13;;;;;;;7.30;4.67;;;19.10;99.90;;;;;;5033387;28;20706;-78
2021/08/22 03:40:58;;;;;;;5.67;3.97;;;19.10;99.90;;;;;;5038290;28;20512;-75
2021/08/22 03:43:44;;;;;;;5.10;4.13;;;19.00;99.90;;;;;;5035609;28;20839;-78
2021/08/22 03:46:31;;;;;;;6.77;4.40;;;19.00;99.90;;;;;;5030295;28;20435;-77
2021/08/22 03:49:17;;;;;;;8.03;3.97;;;19.10;99.90;;;;;;5029333;28;20441;-76
2021/08/22 03:52:02;;;;;;;10.18;4.60;;;19.10;99.90;;;;;;5035318;28;20460;-77
2021/08/22 03:54:49;;;;;;;7.32;4.22;;;19.00;99.90;;;;;;5030675;28;20436;-77
2021/08/22 03:57:35;;;;;;;12.93;5.10;;;19.00;99.90;;;;;;5033033;28;20204;-76
2021/08/22 04:00:21;;;;;;;8.17;4.17;;;19.00;99.90;;;;;;5026840;28;20562;-75
2021/08/22 04:03:08;;;;;;;15.40;4.47;;;19.00;99.90;;;;;;5030828;28;20557;-77
2021/08/22 04:05:54;;;;;;;8.83;4.30;;;19.00;99.90;;;;;;5027297;28;20942;-77
2021/08/22 04:08:40;;;;;;;8.73;4.57;;;19.00;99.90;;;;;;5034114;28;20445;-78
2021/08/22 04:11:25;;;;;;;7.97;4.17;;;18.90;99.90;;;;;;5033305;28;20472;-76
2021/08/22 04:14:11;;;;;;;12.10;4.73;;;18.90;99.90;;;;;;5028330;28;20531;-76
2021/08/22 04:16:57;;;;;;;11.17;4.50;;;18.90;99.90;;;;;;5027198;28;20449;-77
2021/08/22 04:19:44;;;;;;;8.27;4.50;;;18.90;99.90;;;;;;5029955;28;20450;-77
2021/08/22 04:22:30;;;;;;;11.10;4.07;;;18.90;99.90;;;;;;5021890;28;20943;-74
2021/08/22 04:25:16;;;;;;;8.00;3.80;;;18.80;99.90;;;;;;5034698;28;20482;-76
2021/08/22 04:28:02;;;;;;;7.77;4.27;;;18.80;99.90;;;;;;5028226;28;20506;-78
2021/08/22 04:30:47;;;;;;;8.53;4.60;;;18.80;99.90;;;;;;5034802;28;20469;-77
2021/08/22 04:33:33;;;;;;;7.13;4.23;;;18.80;99.90;;;;;;5031212;28;20465;-77
2021/08/22 04:36:20;;;;;;;5.80;4.20;;;18.80;99.90;;;;;;5026321;28;20987;-77
2021/08/22 04:39:06;;;;;;;8.57;3.93;;;18.80;99.90;;;;;;5032499;28;20954;-77
2021/08/22 04:41:52;;;;;;;5.67;4.07;;;18.70;99.90;;;;;;5033375;28;20478;-76
2021/08/22 04:44:37;;;;;;;9.33;4.87;;;18.80;99.90;;;;;;5031928;28;20493;-77
2021/08/22 04:47:23;;;;;;;9.23;4.10;;;18.80;99.90;;;;;;5030133;28;20515;-76
2021/08/22 04:50:09;;;;;;;6.53;4.40;;;18.70;99.90;;;;;;5026953;28;20587;-77
2021/08/22 04:52:57;;;;;;;11.30;4.40;;;18.70;99.90;;;;;;5034315;28;20454;-77
2021/08/22 04:55:42;;;;;;;7.63;3.80;;;18.70;99.90;;;;;;5029152;28;20448;-76
2021/08/22 04:58:28;;;;;;;7.47;4.57;;;18.70;99.90;;;;;;5030762;28;20993;-77
2021/08/22 05:01:14;;;;;;;8.97;4.70;;;18.80;99.90;;;;;;5029007;28;20482;-77
2021/08/22 05:03:59;;;;;;;10.07;4.77;;;18.80;99.90;;;;;;5031923;28;20454;-76
2021/08/22 05:06:45;;;;;;;8.23;4.80;;;18.90;99.90;;;;;;5030405;28;20449;-76
2021/08/22 05:09:32;;;;;;;6.63;4.13;;;18.90;99.90;;;;;;5033128;28;20825;-77
2021/08/22 05:12:18;;;;;;;6.37;4.37;;;19.00;99.90;;;;;;5030108;28;20497;-77
2021/08/22 05:15:06;;;;;;;13.57;4.83;;;19.00;99.90;;;;;;5028404;28;20913;-76
2021/08/22 05:17:52;;;;;;;6.03;4.00;;;19.10;99.90;;;;;;5033023;28;20585;-78
2021/08/22 05:20:38;;;;;;;9.47;4.53;;;19.00;99.90;;;;;;5030325;28;20469;-77
2021/08/22 05:23:24;;;;;;;11.15;4.57;;;19.00;99.90;;;;;;5027427;28;20464;-75
2021/08/22 05:26:10;;;;;;;8.50;4.20;;;19.10;99.90;;;;;;5021603;28;20108;-77
2021/08/22 05:28:56;;;;;;;7.43;4.40;;;19.20;99.90;;;;;;5035117;28;20275;-78
2021/08/22 05:31:42;;;;;;;8.53;4.00;;;19.20;99.90;;;;;;5033942;28;20478;-76
2021/08/22 05:34:27;;;;;;;6.77;4.10;;;19.20;99.90;;;;;;5033194;28;20436;-77
2021/08/22 05:37:13;;;;;;;11.40;4.00;;;19.20;99.90;;;;;;5037966;28;20431;-78
2021/08/22 05:39:59;;;;;;;11.40;4.47;;;19.20;99.90;;;;;;5031992;28;20462;-77
2021/08/22 05:42:46;;;;;;;5.87;4.20;;;19.30;99.90;;;;;;5037912;28;20592;-77
2021/08/22 05:45:31;;;;;;;8.17;3.80;;;19.30;99.90;;;;;;5037546;28;20473;-77
2021/08/22 05:48:17;;;;;;;5.67;4.60;;;19.40;99.90;;;;;;5031188;28;20454;-78
2021/08/22 05:51:03;;;;;;;12.33;5.80;;;19.30;99.90;;;;;;5024569;28;20466;-77
2021/08/22 05:53:50;;;;;;;4.90;4.27;;;19.30;99.90;;;;;;5037087;28;20438;-77
2021/08/22 05:56:36;;;;;;;5.60;4.67;;;19.40;99.90;;;;;;5029674;28;20478;-78
2021/08/22 05:59:23;;;;;;;11.32;5.60;;;19.40;99.90;;;;;;5032965;28;20484;-77
2021/08/22 06:02:08;;;;;;;17.47;4.60;;;19.50;99.90;;;;;;5027794;28;20765;-78
2021/08/22 06:04:54;;;;;;;12.57;5.00;;;19.50;99.90;;;;;;5038100;28;20455;-77
2021/08/22 06:07:40;;;;;;;6.90;4.50;;;19.40;99.90;;;;;;5038512;28;20419;-78
2021/08/22 06:10:26;;;;;;;7.50;4.17;;;19.50;99.90;;;;;;5037708;28;20473;-78
2021/08/22 06:13:11;;;;;;;5.67;4.20;;;19.40;99.90;;;;;;5034519;28;20446;-75
2021/08/22 06:15:58;;;;;;;6.90;4.40;;;19.50;99.90;;;;;;5037096;28;20458;-76
2021/08/22 06:18:44;;;;;;;6.30;4.40;;;19.50;99.90;;;;;;5034439;28;20510;-77
2021/08/22 06:21:30;;;;;;;9.43;4.80;;;19.60;99.90;;;;;;5036142;28;20454;-77
2021/08/22 06:24:15;;;;;;;7.57;4.63;;;19.60;99.90;;;;;;5032372;28;21090;-77
2021/08/22 06:27:01;;;;;;;8.85;5.43;;;19.70;99.90;;;;;;5036980;28;20516;-78
2021/08/22 06:29:47;;;;;;;10.27;5.60;;;19.70;99.90;;;;;;5034081;28;20790;-77
2021/08/22 06:32:34;;;;;;;9.50;5.80;;;19.70;99.90;;;;;;5033627;28;20583;-76
2021/08/22 06:35:20;;;;;;;7.93;5.10;;;19.80;99.90;;;;;;5026530;28;20450;-74
2021/08/22 06:38:05;;;;;;;10.17;5.80;;;19.90;99.90;;;;;;5025865;28;20982;-73
2021/08/22 06:40:51;;;;;;;7.93;6.37;;;20.00;99.90;;;;;;5029666;28;20475;-73
2021/08/22 06:43:36;;;;;;;7.10;6.13;;;20.00;99.90;;;;;;5027889;28;21079;-77
2021/08/22 06:46:22;;;;;;;6.40;5.53;;;19.90;99.90;;;;;;5028965;28;20553;-77
2021/08/22 06:49:10;;;;;;;7.90;6.13;;;20.00;99.90;;;;;;5027485;28;20434;-77
2021/08/22 06:51:55;;;;;;;8.80;6.30;;;20.00;99.90;;;;;;5027976;28;20509;-76
2021/08/22 06:54:41;;;;;;;6.60;5.07;;;20.00;99.90;;;;;;5025905;28;21030;-77
2021/08/22 06:57:27;;;;;;;11.47;6.30;;;20.10;99.90;;;;;;5023065;28;20436;-76
2021/08/22 07:00:14;;;;;;;12.13;6.93;;;20.10;99.90;;;;;;5023705;28;20474;-75
2021/08/22 07:03:00;;;;;;;11.93;7.10;;;20.20;99.90;;;;;;5028342;28;20686;-77
2021/08/22 07:05:47;;;;;;;9.53;6.70;;;20.20;99.90;;;;;;5025745;28;20610;-77
2021/08/22 07:08:33;;;;;;;8.63;6.70;;;20.30;99.90;;;;;;5023475;28;20511;-76
2021/08/22 07:11:18;;;;;;;8.27;6.90;;;20.30;99.90;;;;;;5029572;28;20918;-75
2021/08/22 07:14:04;;;;;;;10.00;6.70;;;20.40;99.90;;;;;;5030157;28;20470;-77
2021/08/22 07:16:50;;;;;;;8.37;7.00;;;20.40;99.90;;;;;;5027375;28;20561;-76
2021/08/22 07:19:37;;;;;;;14.03;7.10;;;20.30;99.90;;;;;;5031225;28;20577;-76
2021/08/22 07:22:24;;;;;;;7.80;6.33;;;20.20;99.90;;;;;;5026464;28;21002;-74
2021/08/22 07:25:10;;;;;;;10.23;7.10;;;20.20;99.90;;;;;;5029998;28;20452;-77
2021/08/22 07:27:56;;;;;;;10.10;7.20;;;20.20;99.90;;;;;;5028433;28;20431;-77
2021/08/22 07:30:42;;;;;;;8.37;6.83;;;20.20;99.90;;;;;;5029027;28;20999;-77
2021/08/22 07:33:27;;;;;;;12.00;7.87;;;20.40;99.90;;;;;;5022687;28;20435;-76
2021/08/22 07:36:13;;;;;;;10.40;7.43;;;20.30;99.90;;;;;;5028367;28;20477;-77
2021/08/22 07:39:00;;;;;;;8.93;6.83;;;20.30;99.90;;;;;;5030965;28;20462;-77
2021/08/22 07:41:46;;;;;;;7.37;6.57;;;20.40;99.90;;;;;;5020813;28;20463;-75
2021/08/22 07:44:31;;;;;;;9.10;7.00;;;20.30;99.90;;;;;;5026481;28;20448;-77
2021/08/22 07:47:17;;;;;;;10.70;7.30;;;20.30;99.90;;;;;;5030065;28;20457;-77
2021/08/22 07:50:02;;;;;;;8.63;7.40;;;20.40;99.90;;;;;;5028296;28;20466;-76
2021/08/22 07:52:48;;;;;;;11.63;8.60;;;20.40;99.90;;;;;;5023912;28;20451;-74
2021/08/22 07:55:36;;;;;;;15.60;8.63;;;20.30;99.90;;;;;;5030746;28;20566;-75
2021/08/22 07:58:22;;;;;;;10.60;8.00;;;20.40;99.90;;;;;;5026507;28;20799;-75
2021/08/22 08:01:08;;;;;;;9.17;7.40;;;20.40;99.90;;;;;;5039319;22;20251;-71
2021/08/22 08:03:53;;;;;;;9.50;8.00;;;20.40;99.90;;;;;;5029254;28;20506;-71
2021/08/22 08:06:39;;;;;;;11.27;8.33;;;20.40;99.90;;;;;;5027305;28;20452;-71
2021/08/22 08:09:25;;;;;;;12.57;8.07;;;20.40;99.90;;;;;;5032575;28;21072;-71
2021/08/22 08:12:12;;;;;;;13.80;9.90;;;20.40;99.90;;;;;;5026876;28;20478;-71
2021/08/22 08:14:58;;;;;;;11.63;9.70;;;20.50;99.90;;;;;;5023115;28;21066;-71
2021/08/22 08:17:45;;;;;;;13.60;10.17;;;20.50;99.90;;;;;;5022288;28;20526;-71
2021/08/22 08:20:30;;;;;;;13.17;10.03;;;20.50;99.90;;;;;;5021902;28;20446;-71
2021/08/22 08:23:16;;;;;;;13.60;10.63;;;20.50;99.90;;;;;;5027113;28;20427;-71
2021/08/22 08:26:02;;;;;;;12.90;10.80;;;20.50;99.90;;;;;;5024215;28;20944;-71
2021/08/22 08:28:48;;;;;;;12.50;10.27;;;20.60;99.90;;;;;;5030304;28;20438;-72
2021/08/22 08:31:35;;;;;;;13.40;10.37;;;20.60;99.90;;;;;;5021273;28;20510;-71
2021/08/22 08:34:21;;;;;;;16.60;11.50;;;20.70;99.90;;;;;;5023423;28;20565;-71
2021/08/22 08:37:06;;;;;;;13.57;11.70;;;20.70;99.90;;;;;;5030197;28;20437;-71
2021/08/22 08:39:52;;;;;;;17.90;11.07;;;20.80;99.90;;;;;;5022682;28;20458;-72
2021/08/22 08:42:38;;;;;;;14.87;11.60;;;20.80;99.90;;;;;;5018441;28;20979;-72
2021/08/22 08:45:31;;;;;;;13.20;10.57;;;20.80;99.90;;;;;;5025594;28;20479;-71
2021/08/22 08:48:20;;;;;;;17.47;12.53;;;20.80;99.90;;;;;;5023916;28;20510;-72
2021/08/22 08:51:12;;;;;;;13.93;10.50;;;20.80;99.90;;;;;;5028994;28;20434;-72
2021/08/22 08:53:59;;;;;;;14.40;11.23;;;20.80;99.90;;;;;;5027852;28;21015;-71
2021/08/22 08:56:44;;;;;;;17.87;11.17;;;20.90;99.90;;;;;;5026598;28;20439;-72
2021/08/22 08:59:30;;;;;;;17.67;11.07;;;20.90;99.90;;;;;;5026799;28;20450;-71
2021/08/22 09:02:17;;;;;;;16.03;10.90;;;20.80;99.90;;;;;;5023541;28;20460;-72
2021/08/22 09:05:18;;;;;;;13.50;11.30;;;20.80;99.90;;;;;;5023226;28;20422;-71
2021/08/22 09:08:43;;;;;;;12.83;10.37;;;20.80;99.90;;;;;;5021475;28;20396;-71
2021/08/22 09:12:05;;;;;;;14.93;12.00;;;20.80;99.90;;;;;;5032189;28;20476;-71
2021/08/22 09:15:43;;;;;;;19.47;13.80;;;20.90;99.90;;;;;;5031092;28;20994;-71
2021/08/22 09:19:18;;;;;;;18.50;13.10;;;20.80;99.90;;;;;;5030758;28;20446;-71
2021/08/22 09:23:01;;;;;;;15.80;12.67;;;20.70;99.90;;;;;;5031719;28;20448;-73
2021/08/22 09:26:24;;;;;;;18.03;13.57;;;20.70;99.90;;;;;;5030530;28;20466;-72
2021/08/22 09:30:13;;;;;;;13.77;12.27;;;20.70;99.90;;;;;;5027268;28;20458;-75
2021/08/22 09:33:43;;;;;;;20.20;13.17;;;20.80;99.90;;;;;;5029162;28;21004;-69
2021/08/22 09:37:07;;;;;;;16.33;13.67;;;20.80;99.90;;;;;;5026622;28;20470;-69
2021/08/22 09:40:25;;;;;;;14.93;13.00;;;20.80;99.90;;;;;;5032641;28;20457;-68
2021/08/22 09:43:59;;;;;;;14.67;11.70;;;20.80;99.90;;;;;;5018862;28;21002;-68
2021/08/22 09:47:41;;;;;;;16.27;11.60;;;20.80;99.90;;;;;;5024722;28;20565;-68
2021/08/22 09:51:09;;;;;;;16.40;12.68;;;20.70;99.90;;;;;;5021792;28;20438;-69
2021/08/22 09:54:32;;;;;;;17.50;11.83;;;20.90;99.90;;;;;;5028698;28;20221;-68
2021/08/22 09:58:06;;;;;;;22.27;12.20;;;20.90;99.90;;;;;;5029298;28;20574;-69
2021/08/22 10:01:26;;;;;;;19.20;12.30;;;20.90;99.90;;;;;;5026422;28;20474;-69
2021/08/22 10:04:54;;;;;;;14.60;11.93;;;20.90;99.90;;;;;;5027241;28;20479;-68
2021/08/22 10:07:57;;;;;;;19.13;12.97;;;20.80;99.90;;;;;;5021364;28;20464;-68
2021/08/22 10:10:46;;;;;;;15.33;11.47;;;20.70;99.90;;;;;;5028969;28;20692;-68
2021/08/22 10:13:32;;;;;;;12.20;10.77;;;20.80;99.90;;;;;;5031314;28;20462;-68
2021/08/22 10:16:20;;;;;;;14.53;11.23;;;20.90;99.90;;;;;;5022592;28;20493;-69
2021/08/22 10:19:06;;;;;;;13.70;10.23;;;21.00;99.90;;;;;;5018159;28;20459;-68
2021/08/22 10:22:13;;;;;;;14.23;11.80;;;21.00;99.90;;;;;;5028242;28;20482;-68
2021/08/22 10:25:02;;;;;;;12.73;10.87;;;21.10;99.90;;;;;;5028147;28;20935;-68
2021/08/22 10:27:58;;;;;;;12.30;10.93;;;21.00;99.90;;;;;;5029078;28;20455;-68
2021/08/22 10:30:43;;;;;;;17.80;12.90;;;21.10;99.90;;;;;;5028794;28;20447;-69
2021/08/22 10:33:30;;;;;;;13.30;11.20;;;21.10;99.90;;;;;;5023684;28;20455;-68
2021/08/22 10:36:30;;;;;;;13.73;10.40;;;21.10;99.90;;;;;;5022039;28;20452;-68
2021/08/22 10:39:31;;;;;;;15.00;10.93;;;21.20;99.90;;;;;;5023692;28;20452;-68
2021/08/22 10:42:20;;;;;;;13.87;9.50;;;21.30;99.90;;;;;;5022542;28;20601;-69
2021/08/22 10:45:06;;;;;;;14.33;11.20;;;21.40;99.90;;;;;;5032471;28;20808;-69
2021/08/22 10:47:52;;;;;;;15.87;11.30;;;21.40;99.90;;;;;;5023318;28;20454;-68
2021/08/22 10:51:12;;;;;;;34.70;11.50;;;21.40;99.90;;;;;;5027910;28;20450;-69
2021/08/22 10:54:18;;;;;;;13.90;12.50;;;21.20;99.90;;;;;;5029291;28;20998;-69
2021/08/22 10:57:05;;;;;;;16.10;11.10;;;21.00;99.90;;;;;;5029105;28;20451;-69
2021/08/22 11:00:18;;;;;;;19.20;11.43;;;21.00;99.90;;;;;;5030996;28;20963;-68
2021/08/22 11:03:05;;;;;;;17.73;11.67;;;21.00;99.90;;;;;;5028903;28;20458;-68
2021/08/22 11:05:51;;;;;;;11.53;10.27;;;20.80;99.90;;;;;;5027522;28;20454;-72
2021/08/22 11:08:38;;;;;;;14.70;10.50;;;20.80;99.90;;;;;;5021682;28;20446;-72
2021/08/22 11:11:23;;;;;;;12.97;11.13;;;20.80;99.90;;;;;;5026522;28;20429;-72
2021/08/22 11:14:13;;;;;;;14.97;11.13;;;20.90;99.90;;;;;;5024579;28;20504;-72
2021/08/22 11:16:59;;;;;;;13.80;9.80;;;20.90;99.90;;;;;;5026724;28;20854;-72
2021/08/22 11:19:45;;;;;;;13.97;10.73;;;20.90;99.90;;;;;;5030398;28;20443;-72
2021/08/22 11:22:31;;;;;;;13.03;10.17;;;21.00;99.90;;;;;;5025313;28;20467;-72
2021/08/22 11:25:18;;;;;;;10.13;9.13;;;21.00;99.90;;;;;;5028857;28;20822;-72
2021/08/22 11:28:09;;;;;;;11.00;9.80;;;20.90;99.90;;;;;;5022985;28;20529;-72
2021/08/22 11:30:54;;;;;;;12.70;10.73;;;20.90;99.90;;;;;;5027590;28;20448;-71
2021/08/22 11:33:41;;;;;;;13.53;10.93;;;20.80;99.90;;;;;;5024730;28;20509;-72
2021/08/22 11:36:28;;;;;;;16.20;10.13;;;20.80;99.90;;;;;;5026058;28;20394;-72
2021/08/22 11:39:16;;;;;;;20.13;9.90;;;20.60;99.90;;;;;;5024826;28;20475;-72
2021/08/22 11:42:04;;;;;;;11.17;9.80;;;20.50;99.90;;;;;;5030933;28;20813;-72
2021/08/22 11:44:49;;;;;;;10.87;9.37;;;20.60;99.90;;;;;;5028848;28;20819;-72
2021/08/22 11:47:37;;;;;;;9.17;8.27;;;20.70;99.90;;;;;;5023918;28;20502;-72
2021/08/22 11:50:27;;;;;;;15.93;9.40;;;20.80;99.90;;;;;;5027907;28;20433;-73
2021/08/22 11:53:13;;;;;;;11.40;9.00;;;21.00;99.90;;;;;;5027396;28;21344;-72
2021/08/22 11:55:59;;;;;;;9.53;8.53;;;20.90;99.90;;;;;;5025062;28;20466;-72
2021/08/22 11:58:47;;;;;;;8.93;8.03;;;20.90;99.90;;;;;;5030778;28;20523;-73
2021/08/22 12:01:33;;;;;;;10.90;9.80;;;20.90;99.90;;;;;;5023055;28;20479;-73
2021/08/22 12:04:19;;;;;;;10.63;8.90;;;20.80;99.90;;;;;;5020112;28;20447;-73
2021/08/22 12:07:05;;;;;;;11.03;8.03;;;20.90;99.90;;;;;;5018917;28;20468;-72
2021/08/22 12:09:51;;;;;;;11.10;8.37;;;20.90;99.90;;;;;;5034401;28;20834;-73
2021/08/22 12:12:40;;;;;;;10.50;8.33;;;20.80;99.90;;;;;;5027323;28;20570;-72
2021/08/22 12:15:33;;;;;;;11.47;8.50;;;20.80;99.90;;;;;;5026855;28;20431;-73
2021/08/22 12:18:28;;;;;;;9.03;8.13;;;20.80;99.90;;;;;;5025041;28;20493;-73
2021/08/22 12:21:18;;;;;;;10.57;8.80;;;21.00;99.90;;;;;;5023123;28;20934;-73
2021/08/22 12:24:18;;;;;;;9.13;7.83;;;21.20;99.90;;;;;;5017528;28;20455;-73
2021/08/22 12:27:06;;;;;;;9.43;8.33;;;21.10;99.90;;;;;;5024166;28;20987;-72
2021/08/22 12:30:06;;;;;;;10.13;8.70;;;21.10;99.90;;;;;;5023675;28;20603;-72
2021/08/22 12:32:53;;;;;;;11.77;8.43;;;20.90;99.90;;;;;;5030540;28;20443;-73
2021/08/22 12:35:39;;;;;;;9.00;8.10;;;20.90;99.90;;;;;;5021773;28;20459;-72
2021/08/22 12:38:38;;;;;;;9.20;8.30;;;21.10;99.90;;;;;;5030360;28;20450;-73
2021/08/22 12:41:33;;;;;;;9.23;8.30;;;21.10;99.90;;;;;;5033564;28;20439;-73
2021/08/22 12:44:20;;;;;;;10.13;8.77;;;21.10;99.90;;;;;;5023488;28;20455;-73
2021/08/22 12:47:06;;;;;;;9.90;8.00;;;21.20;99.90;;;;;;5019414;28;20472;-73
2021/08/22 12:49:55;;;;;;;9.80;8.23;;;21.30;99.90;;;;;;5022010;28;20478;-73
2021/08/22 12:52:43;;;;;;;10.33;7.63;;;21.50;99.90;;;;;;5021597;28;21091;-72
2021/08/22 12:55:28;;;;;;;13.63;8.50;;;21.50;99.90;;;;;;5026461;28;20505;-73
2021/08/22 12:58:14;;;;;;;9.60;8.27;;;21.50;99.90;;;;;;5030997;28;20473;-72
2021/08/22 13:01:00;;;;;;;12.27;7.37;;;21.50;99.90;;;;;;5018670;28;20471;-73
2021/08/22 13:03:46;;;;;;;9.60;8.20;;;21.60;99.90;;;;;;5026696;28;20447;-73
2021/08/22 13:06:33;;;;;;;9.10;8.13;;;21.40;99.90;;;;;;5017115;28;20620;-72
2021/08/22 13:09:21;;;;;;;9.90;7.77;;;21.20;99.90;;;;;;5025770;28;20423;-73
2021/08/22 13:12:07;;;;;;;11.60;8.00;;;21.10;99.90;;;;;;5026597;28;20475;-73
2021/08/22 13:14:53;;;;;;;11.63;9.30;;;21.10;99.90;;;;;;5024135;28;20437;-73
2021/08/22 13:17:39;;;;;;;12.17;7.90;;;20.90;99.90;;;;;;5028289;28;20570;-72
2021/08/22 13:20:24;;;;;;;13.27;8.23;;;20.80;99.90;;;;;;5020567;28;20590;-73
2021/08/22 13:23:11;;;;;;;15.87;7.67;;;20.40;99.90;;;;;;5020364;28;20467;-72
2021/08/22 13:25:58;;;;;;;9.10;6.20;;;20.20;99.90;;;;;;5020673;28;20537;-72
2021/08/22 13:28:43;;;;;;;7.50;6.70;;;20.10;99.90;;;;;;5022156;28;20443;-73
2021/08/22 13:31:29;;;;;;;8.87;6.00;;;19.90;99.90;;;;;;5011001;28;20485;-72
2021/08/22 13:34:14;;;;;;;11.27;6.23;;;19.80;99.90;;;;;;5030709;28;20484;-72
2021/08/22 13:37:00;;;;;;;8.40;6.60;;;19.60;99.90;;;;;;5026813;28;20495;-72
2021/08/22 13:39:47;;;;;;;8.10;7.30;;;19.50;99.90;;;;;;5027887;28;20452;-72
2021/08/22 13:42:33;;;;;;;8.93;8.03;;;19.60;99.90;;;;;;5025315;28;20456;-72
2021/08/22 13:45:18;;;;;;;8.90;7.20;;;19.70;99.90;;;;;;5020236;28;20548;-72
2021/08/22 13:48:04;;;;;;;7.63;6.67;;;19.80;99.90;;;;;;5023192;28;20453;-72
2021/08/22 13:50:50;;;;;;;8.10;6.33;;;19.70;99.90;;;;;;5028819;28;20987;-72
2021/08/22 13:53:36;;;;;;;10.90;8.00;;;19.60;99.90;;;;;;5028342;28;20446;-72
2021/08/22 13:56:22;;;;;;;9.57;7.30;;;19.70;99.90;;;;;;5028005;28;20400;-72
2021/08/22 13:59:08;;;;;;;8.33;6.60;;;19.70;99.90;;;;;;5027837;28;20825;-72
2021/08/22 14:01:54;;;;;;;8.50;7.30;;;19.80;99.90;;;;;;5019756;28;20488;-72
2021/08/22 14:04:40;;;;;;;10.40;7.20;;;19.80;99.90;;;;;;5046296;22;20500;-75
2021/08/22 14:07:25;;;;;;;7.60;6.60;;;19.80;99.90;;;;;;5033497;28;20545;-73
2021/08/22 14:10:12;;;;;;;8.27;6.77;;;19.80;99.90;;;;;;5030776;28;20817;-74
2021/08/22 14:12:59;;;;;;;8.13;6.43;;;19.80;99.90;;;;;;5027035;28;20517;-74
2021/08/22 14:15:45;;;;;;;9.27;6.30;;;19.60;99.90;;;;;;5012293;28;21050;-74
2021/08/22 14:18:33;;;;;;;9.03;6.47;;;19.60;99.90;;;;;;5007642;28;21261;-73
2021/08/22 14:21:18;;;;;;;7.63;6.20;;;19.60;99.90;;;;;;5003629;28;20447;-73
2021/08/22 14:24:06;;;;;;;9.37;6.17;;;19.50;99.90;;;;;;5011600;28;21308;-72
2021/08/22 14:26:52;;;;;;;8.30;6.17;;;19.50;99.90;;;;;;5007623;28;20449;-73
2021/08/22 14:29:39;;;;;;;6.73;4.87;;;19.50;99.90;;;;;;5004105;28;20729;-73
2021/08/22 14:32:25;;;;;;;10.07;5.00;;;19.30;99.90;;;;;;5011903;28;20498;-73
2021/08/22 14:35:11;;;;;;;7.10;5.10;;;19.30;99.90;;;;;;5007018;28;20449;-73